Time;durP1;ratioP1;P1;durP2;ratioP2;P2;SDS_P1;SDS_P2;PMS_P1;PMS_P2;Temp;Humidity;BMP_temperature;BMP_pressure;BME280_temperature;BME280_humidity;BME280_pressure;Samples;Min_cycle;Max_cycle;Signal;HPM_P1;HPM_P2
2022/08/24 00:02:23;;;;;;;36.05;6.05;;;;;;;17.95;100.00;98210.09;5008833;28;20045;-52
2022/08/24 00:04:50;;;;;;;39.17;6.78;;;;;;;17.77;100.00;98205.06;5008632;28;20025;-52
2022/08/24 00:07:16;;;;;;;36.17;6.35;;;;;;;17.97;100.00;98202.91;5009937;28;20030;-52
2022/08/24 00:09:42;;;;;;;47.10;7.47;;;;;;;17.68;100.00;98205.69;5008794;28;20049;-51
2022/08/24 00:12:07;;;;;;;46.53;7.45;;;;;;;17.57;100.00;98211.69;5007107;28;20046;-52
2022/08/24 00:14:33;;;;;;;38.00;6.75;;;;;;;17.81;100.00;98208.34;5008700;28;20021;-52
2022/08/24 00:16:59;;;;;;;49.20;7.32;;;;;;;18.06;100.00;98204.91;5008396;28;20037;-52
2022/08/24 00:19:26;;;;;;;48.20;7.35;;;;;;;17.86;100.00;98206.28;5010523;28;20055;-52
2022/08/24 00:21:51;;;;;;;44.97;7.13;;;;;;;17.74;100.00;98210.56;5010306;28;20049;-52
2022/08/24 00:24:17;;;;;;;37.97;6.82;;;;;;;17.42;100.00;98213.50;5010784;28;20029;-52
2022/08/24 00:26:44;;;;;;;41.20;7.22;;;;;;;17.29;100.00;98217.91;5011783;28;20795;-52
2022/08/24 00:29:11;;;;;;;42.42;6.78;;;;;;;17.73;100.00;98216.78;5007974;28;20053;-56
2022/08/24 00:31:37;;;;;;;38.92;7.00;;;;;;;17.13;100.00;98223.34;5008557;28;20026;-52
2022/08/24 00:34:02;;;;;;;55.90;8.40;;;;;;;17.33;100.00;98215.00;5007981;28;20079;-52
2022/08/24 00:36:28;;;;;;;38.97;6.68;;;;;;;17.24;100.00;98220.84;5010776;28;20680;-52
2022/08/24 00:38:53;;;;;;;47.85;8.25;;;;;;;17.21;100.00;98222.84;5010638;28;20038;-52
2022/08/24 00:41:18;;;;;;;39.65;6.97;;;;;;;17.29;100.00;98228.44;5009471;28;20124;-53
2022/08/24 00:43:56;;;;;;;43.58;7.55;;;;;;;17.17;100.00;98219.56;5009787;28;20025;-52
2022/08/24 00:46:43;;;;;;;41.35;7.85;;;;;;;17.12;100.00;98227.75;5013048;28;20030;-52
2022/08/24 00:49:36;;;;;;;46.35;7.93;;;;;;;16.94;100.00;98231.56;5012128;28;20121;-52
2022/08/24 00:52:10;;;;;;;41.88;7.47;;;;;;;17.14;100.00;98227.66;5009707;28;20088;-55
2022/08/24 00:54:43;;;;;;;42.63;6.97;;;;;;;17.20;100.00;98229.06;5012975;28;20159;-52
2022/08/24 00:57:10;;;;;;;41.97;7.72;;;;;;;16.73;100.00;98231.94;5014038;28;20044;-52
2022/08/24 00:59:44;;;;;;;43.08;7.60;;;;;;;16.69;100.00;98234.84;5013774;28;20037;-52
2022/08/24 01:02:23;;;;;;;40.50;6.47;;;;;;;16.87;100.00;98233.75;5010656;28;20099;-55
2022/08/24 01:04:58;;;;;;;39.60;7.28;;;;;;;16.72;100.00;98230.22;5012449;28;20064;-52
2022/08/24 01:07:26;;;;;;;50.83;8.50;;;;;;;16.80;100.00;98236.81;5013173;28;20125;-52
2022/08/24 01:09:53;;;;;;;43.90;7.40;;;;;;;16.70;100.00;98234.75;5014019;28;20794;-52
2022/08/24 01:12:20;;;;;;;38.00;6.75;;;;;;;17.00;100.00;98233.81;5013100;28;20109;-52
2022/08/24 01:14:45;;;;;;;37.38;6.95;;;;;;;16.45;100.00;98247.75;5014400;28;20179;-52
2022/08/24 01:19:58;;;;;;;42.97;7.90;;;;;;;16.31;100.00;98241.53;5012994;28;20076;-52
2022/08/24 01:23:18;;;;;;;40.67;7.60;;;;;;;16.31;100.00;98249.44;5013085;28;20037;-52
2022/08/24 01:25:44;;;;;;;48.30;8.82;;;;;;;16.45;100.00;98247.75;5007911;28;20040;-52
2022/08/24 01:28:14;;;;;;;42.90;8.00;;;;;;;16.48;100.00;98255.47;5013962;28;20034;-51
2022/08/24 01:30:42;;;;;;;53.20;8.40;;;;;;;16.48;100.00;98245.75;5011461;28;20045;-52
2022/08/24 01:33:10;;;;;;;41.60;7.93;;;;;;;16.06;100.00;98257.09;5012389;28;20092;-52
2022/08/24 01:35:37;;;;;;;54.67;8.93;;;;;;;16.09;100.00;98256.94;5011864;28;20038;-52
2022/08/24 01:38:07;;;;;;;45.55;8.45;;;;;;;15.99;100.00;98262.75;5014466;28;20464;-52
2022/08/24 01:40:37;;;;;;;32.38;7.28;;;;;;;16.13;100.00;98263.69;5012126;28;20037;-52
2022/08/24 01:43:05;;;;;;;55.42;8.60;;;;;;;16.14;100.00;98252.25;5013152;28;20066;-52
2022/08/24 01:45:30;;;;;;;44.90;7.88;;;;;;;16.31;100.00;98252.06;5011163;28;20045;-52
2022/08/24 01:47:57;;;;;;;52.30;8.95;;;;;;;16.12;100.00;98246.19;5013951;28;20129;-52
2022/08/24 01:50:23;;;;;;;44.88;8.13;;;;;;;16.19;100.00;98252.78;5011943;28;20265;-52
2022/08/24 01:52:51;;;;;;;44.28;8.48;;;;;;;15.92;100.00;98256.13;5013328;28;20024;-52
2022/08/24 01:55:17;;;;;;;48.30;8.07;;;;;;;15.92;100.00;98252.66;5012092;28;20029;-52
2022/08/24 01:57:42;;;;;;;47.10;7.95;;;;;;;16.37;100.00;98251.69;5014464;28;20040;-52
2022/08/24 02:00:13;;;;;;;44.28;8.27;;;;;;;15.87;100.00;98247.66;5010829;28;20021;-52
2022/08/24 02:02:40;;;;;;;50.95;8.52;;;;;;;15.78;100.00;98250.84;5010420;28;20053;-52
2022/08/24 02:05:06;;;;;;;50.97;8.57;;;;;;;15.79;100.00;98260.44;5010872;28;20040;-52
2022/08/24 02:07:31;;;;;;;48.75;8.40;;;;;;;15.86;100.00;98266.16;5012360;28;20033;-52
2022/08/24 02:09:57;;;;;;;46.85;8.75;;;;;;;15.59;100.00;98259.75;5011251;28;20075;-52
2022/08/24 02:12:23;;;;;;;45.58;8.27;;;;;;;15.64;100.00;98256.00;5010832;28;20119;-52
2022/08/24 02:14:49;;;;;;;41.97;7.97;;;;;;;15.64;100.00;98267.41;5012702;28;20025;-52
2022/08/24 02:17:15;;;;;;;44.90;8.02;;;;;;;15.66;100.00;98264.66;5009940;28;20179;-53
2022/08/24 02:19:40;;;;;;;46.00;8.20;;;;;;;15.75;100.00;98262.38;5012687;28;20034;-53
2022/08/24 02:22:06;;;;;;;50.45;8.52;;;;;;;15.50;100.00;98264.69;5012009;28;20041;-52
2022/08/24 02:24:32;;;;;;;47.15;8.30;;;;;;;15.78;100.00;98263.97;5011536;28;20123;-52
2022/08/24 02:26:58;;;;;;;37.78;7.63;;;;;;;15.64;100.00;98256.00;5008452;28;20050;-53
2022/08/24 02:29:24;;;;;;;36.45;7.28;;;;;;;15.57;100.00;98264.25;5010831;28;20080;-52
2022/08/24 02:31:50;;;;;;;32.20;7.43;;;;;;;15.66;100.00;98265.53;5010990;28;20034;-52
2022/08/24 02:34:16;;;;;;;38.30;7.78;;;;;;;15.69;100.00;98269.75;5019706;28;20036;-52
2022/08/24 02:36:41;;;;;;;32.53;7.03;;;;;;;15.55;100.00;98266.13;5011276;28;20085;-53
2022/08/24 02:39:07;;;;;;;30.90;6.95;;;;;;;15.71;100.00;98266.06;5013060;28;20017;-53
2022/08/24 02:41:33;;;;;;;26.55;6.75;;;;;;;15.66;100.00;98270.78;5011471;28;20646;-53
2022/08/24 02:43:59;;;;;;;29.33;7.30;;;;;;;15.73;100.00;98271.25;5010099;28;20029;-52
2022/08/24 02:46:27;;;;;;;43.67;8.25;;;;;;;15.44;100.00;98276.41;5008988;28;20052;-52
2022/08/24 02:48:53;;;;;;;33.85;7.97;;;;;;;15.35;100.00;98274.31;5012860;28;20033;-52
2022/08/24 02:51:21;;;;;;;35.85;7.32;;;;;;;15.63;100.00;98278.00;5013704;28;20045;-52
2022/08/24 02:53:47;;;;;;;25.08;6.63;;;;;;;15.75;100.00;98277.31;5013122;28;20025;-52
2022/08/24 02:56:12;;;;;;;30.88;7.60;;;;;;;15.50;100.00;98281.31;5009890;28;20411;-52
2022/08/24 02:58:38;;;;;;;34.38;7.57;;;;;;;15.41;100.00;98277.41;5011838;28;20740;-52
2022/08/24 03:01:03;;;;;;;32.10;7.55;;;;;;;15.05;100.00;98290.81;5010856;28;20513;-52
2022/08/24 03:03:29;;;;;;;33.67;8.30;;;;;;;14.96;100.00;98286.06;5011693;28;20034;-52
2022/08/24 03:05:54;;;;;;;33.55;7.95;;;;;;;15.35;100.00;98290.06;5011958;28;20050;-52
2022/08/24 03:08:19;;;;;;;32.97;7.78;;;;;;;15.21;100.00;98283.78;5010210;28;20175;-53
2022/08/24 03:10:45;;;;;;;39.72;8.57;;;;;;;15.43;100.00;98285.22;5011634;28;20049;-52
2022/08/24 03:13:10;;;;;;;28.40;7.28;;;;;;;15.39;100.00;98278.44;5010156;28;20061;-52
2022/08/24 03:15:35;;;;;;;38.35;8.07;;;;;;;15.45;100.00;98280.72;5012126;28;20040;-52
2022/08/24 03:18:01;;;;;;;27.45;7.38;;;;;;;15.28;100.00;98280.84;5017362;28;20021;-53
2022/08/24 03:20:27;;;;;;;33.33;8.40;;;;;;;15.36;100.00;98275.97;5009501;28;20037;-52
2022/08/24 03:22:52;;;;;;;33.30;7.45;;;;;;;15.38;100.00;98276.72;5011470;28;20034;-52
2022/08/24 03:25:19;;;;;;;28.17;6.80;;;;;;;15.38;100.00;98277.59;5011280;28;20033;-53
2022/08/24 03:27:44;;;;;;;38.33;8.63;;;;;;;15.15;100.00;98271.00;5010314;28;20423;-54
2022/08/24 03:30:12;;;;;;;38.10;8.73;;;;;;;15.23;100.00;98274.03;5008668;28;20538;-52
2022/08/24 03:32:38;;;;;;;39.38;8.20;;;;;;;15.19;100.00;98277.75;5009380;28;20026;-52
2022/08/24 03:35:04;;;;;;;34.63;8.15;;;;;;;14.93;100.00;98276.56;5009268;28;20108;-52
2022/08/24 03:37:31;;;;;;;31.50;8.10;;;;;;;14.90;100.00;98286.41;5011261;28;20072;-54
2022/08/24 03:39:57;;;;;;;43.45;9.35;;;;;;;15.02;100.00;98285.75;5010853;28;20023;-52
2022/08/24 03:42:22;;;;;;;31.17;7.95;;;;;;;15.07;100.00;98283.72;5011895;28;20037;-52
2022/08/24 03:44:47;;;;;;;42.78;8.65;;;;;;;15.31;100.00;98292.03;5011016;28;20133;-52
2022/08/24 03:47:13;;;;;;;34.17;7.97;;;;;;;15.33;100.00;98278.75;5010064;28;20042;-52
2022/08/24 03:49:38;;;;;;;32.42;7.35;;;;;;;15.31;100.00;98281.50;5010550;28;20117;-52
2022/08/24 03:52:05;;;;;;;39.40;8.88;;;;;;;15.12;100.00;98288.69;5008116;28;20051;-52
2022/08/24 03:54:31;;;;;;;30.63;7.20;;;;;;;15.27;100.00;98293.09;5011722;28;20568;-52
2022/08/24 03:56:57;;;;;;;41.85;9.00;;;;;;;15.24;100.00;98288.03;5009599;28;20488;-53
2022/08/24 03:59:23;;;;;;;32.03;8.48;;;;;;;15.21;100.00;98290.81;5012268;28;20022;-52
2022/08/24 04:01:49;;;;;;;29.85;7.63;;;;;;;15.18;100.00;98289.22;5010559;28;20438;-52
2022/08/24 04:04:14;;;;;;;38.50;8.77;;;;;;;15.32;100.00;98288.44;5009328;28;20696;-53
2022/08/24 04:06:43;;;;;;;29.90;7.32;;;;;;;15.32;100.00;98298.13;5012490;28;20037;-54
2022/08/24 04:09:09;;;;;;;34.60;8.82;;;;;;;15.04;100.00;98299.63;5013008;28;20033;-53
2022/08/24 04:11:34;;;;;;;29.52;7.82;;;;;;;15.02;100.00;98297.09;5012118;28;20726;-52
2022/08/24 04:14:00;;;;;;;29.83;8.13;;;;;;;15.07;100.00;98288.97;5009527;28;20038;-52
2022/08/24 04:16:26;;;;;;;31.38;8.18;;;;;;;15.11;100.00;98295.75;5010297;28;20038;-53
2022/08/24 04:18:51;;;;;;;32.42;8.23;;;;;;;15.14;100.00;98290.31;5012624;28;20485;-53
2022/08/24 04:21:22;;;;;;;37.15;9.18;;;;;;;15.23;100.00;98289.78;5013857;28;20089;-54
2022/08/24 04:23:49;;;;;;;29.83;7.85;;;;;;;15.09;100.00;98297.59;5014746;28;20037;-52
2022/08/24 04:26:16;;;;;;;33.95;8.55;;;;;;;15.18;100.00;98290.97;5014468;28;20439;-52
2022/08/24 04:28:41;;;;;;;31.73;9.00;;;;;;;14.96;100.00;98293.94;5015879;28;20118;-52
2022/08/24 04:31:07;;;;;;;29.08;7.75;;;;;;;15.14;100.00;98300.81;5013475;28;20595;-52
2022/08/24 04:33:33;;;;;;;22.85;5.97;;;;;;;15.74;100.00;98307.19;5015263;28;20084;-53
2022/08/24 04:35:58;;;;;;;31.48;7.32;;;;;;;15.69;100.00;98302.13;5013825;28;20460;-52
2022/08/24 04:38:25;;;;;;;40.10;8.43;;;;;;;15.75;100.00;98298.34;5011566;28;20033;-52
2022/08/24 04:40:51;;;;;;;38.33;9.32;;;;;;;15.66;100.00;98304.09;5015032;28;20042;-52
2022/08/24 04:43:17;;;;;;;28.23;8.45;;;;;;;15.52;100.00;98312.78;5015887;28;20036;-52
2022/08/24 04:45:45;;;;;;;31.80;9.23;;;;;;;15.44;100.00;98313.22;5014698;28;20041;-52
2022/08/24 04:48:13;;;;;;;23.83;6.45;;;;;;;16.10;100.00;98317.38;5013752;28;20837;-52
2022/08/24 04:50:41;;;;;;;36.17;8.27;;;;;;;16.24;100.00;98308.63;5014479;28;20069;-52
2022/08/24 04:53:07;;;;;;;37.35;8.70;;;;;;;15.86;100.00;98313.50;5013980;28;20033;-53
2022/08/24 04:55:40;;;;;;;34.65;8.85;;;;;;;15.69;100.00;98327.59;5012236;28;20033;-52
2022/08/24 04:58:05;;;;;;;29.80;7.88;;;;;;;16.08;100.00;98323.63;5015130;28;20105;-52
2022/08/24 05:00:31;;;;;;;29.92;8.20;;;;;;;16.10;100.00;98313.88;5014462;28;21122;-52
2022/08/24 05:02:56;;;;;;;28.85;8.23;;;;;;;16.13;100.00;98311.06;5018531;28;20126;-51
2022/08/24 05:05:21;;;;;;;27.02;7.88;;;;;;;16.47;100.00;98316.94;5014252;28;20572;-52
2022/08/24 05:07:47;;;;;;;28.52;7.95;;;;;;;16.52;100.00;98314.88;5015266;28;20025;-52
2022/08/24 05:10:12;;;;;;;34.95;8.60;;;;;;;16.74;100.00;98317.06;5012657;28;20069;-52
2022/08/24 05:12:38;;;;;;;37.92;8.60;;;;;;;17.14;100.00;98310.19;5012594;28;20101;-53
2022/08/24 05:15:04;;;;;;;32.58;7.75;;;;;;;16.94;100.00;98314.06;5013700;28;20090;-52
2022/08/24 05:17:31;;;;;;;30.33;8.00;;;;;;;17.02;100.00;98321.53;5013958;28;20613;-52
2022/08/24 05:19:57;;;;;;;34.03;8.35;;;;;;;16.98;100.00;98312.09;5013563;28;20056;-52
2022/08/24 05:22:23;;;;;;;31.38;7.90;;;;;;;17.38;100.00;98309.59;5013382;28;20532;-53
2022/08/24 05:24:48;;;;;;;29.85;8.43;;;;;;;17.21;100.00;98309.84;5013237;28;20039;-53
2022/08/24 05:27:14;;;;;;;33.70;7.90;;;;;;;17.27;100.00;98315.53;5009360;28;21050;-52
2022/08/24 05:29:40;;;;;;;29.55;7.93;;;;;;;17.50;100.00;98310.63;5010781;28;20088;-54
2022/08/24 05:32:05;;;;;;;29.17;7.55;;;;;;;17.72;100.00;98310.06;5007649;28;20034;-52
2022/08/24 05:34:31;;;;;;;31.63;8.02;;;;;;;17.69;100.00;98307.63;5011426;28;20032;-53
2022/08/24 05:36:56;;;;;;;41.38;9.48;;;;;;;17.76;100.00;98302.81;5013500;28;20136;-53
2022/08/24 05:39:21;;;;;;;31.38;7.95;;;;;;;18.48;100.00;98297.97;5012921;28;20021;-52
2022/08/24 05:41:47;;;;;;;31.40;7.90;;;;;;;20.83;100.00;98269.34;5012076;28;20034;-53
2022/08/24 05:44:15;;;;;;;30.17;7.68;;;;;;;21.66;100.00;98254.75;5012677;28;20028;-53
2022/08/24 05:46:42;;;;;;;29.92;7.65;;;;;;;23.77;100.00;98243.66;5012321;28;20053;-53
2022/08/24 05:49:08;;;;;;;29.48;7.45;;;;;;;24.81;100.00;98247.28;5012472;28;20025;-52
2022/08/24 05:51:34;;;;;;;26.08;6.57;;;;;;;25.06;100.00;98241.38;5012214;28;20086;-53
2022/08/24 05:53:59;;;;;;;24.90;6.43;;;;;;;25.57;100.00;98251.47;5009838;28;20036;-53
2022/08/24 05:56:25;;;;;;;20.92;6.30;;;;;;;23.67;100.00;98254.28;5012273;28;20629;-52
2022/08/24 05:58:50;;;;;;;22.25;6.55;;;;;;;23.77;100.00;98252.47;5009344;28;20036;-53
2022/08/24 06:01:19;;;;;;;27.77;7.03;;;;;;;24.14;100.00;98261.59;5009591;28;20045;-53
2022/08/24 06:03:45;;;;;;;23.48;6.45;;;;;;;23.82;100.00;98254.72;5011436;28;20029;-53
2022/08/24 06:06:12;;;;;;;28.75;6.85;;;;;;;23.47;100.00;98259.63;5012923;28;20025;-53
2022/08/24 06:08:40;;;;;;;24.05;6.53;;;;;;;22.98;100.00;98252.47;5007000;28;20041;-53
2022/08/24 06:11:05;;;;;;;29.95;7.57;;;;;;;23.81;100.00;98261.06;5007387;28;20085;-53
2022/08/24 06:13:32;;;;;;;26.60;6.70;;;;;;;23.90;100.00;98262.06;5012111;28;20029;-53
2022/08/24 06:16:15;;;;;;;23.98;6.63;;;;;;;24.71;100.00;98259.78;5010682;28;20065;-53
2022/08/24 06:18:41;;;;;;;22.83;5.85;;;;;;;25.17;100.00;98257.19;5012002;28;20025;-53
2022/08/24 06:21:10;;;;;;;21.25;6.38;;;;;;;25.40;100.00;98262.97;5012012;28;20522;-53
2022/08/24 06:23:36;;;;;;;19.40;5.95;;;;;;;25.68;100.00;98253.09;5013349;28;20128;-53
2022/08/24 06:28:47;;;;;;;18.88;5.85;;;;;;;27.35;100.00;98250.31;5014381;28;20156;-53
2022/08/24 06:31:13;;;;;;;16.77;5.95;;;;;;;26.86;100.00;98250.94;5012243;28;20108;-53
2022/08/24 06:33:38;;;;;;;17.15;5.50;;;;;;;27.92;92.04;98243.38;5014367;28;20055;-53
2022/08/24 06:36:03;;;;;;;17.08;5.43;;;;;;;29.46;83.21;98247.66;5012153;28;20134;-56
2022/08/24 06:38:29;;;;;;;19.30;5.97;;;;;;;29.49;76.43;98237.38;5011891;28;20045;-52
2022/08/24 06:40:55;;;;;;;19.08;6.00;;;;;;;27.35;89.66;98247.63;5010795;28;20348;-54
2022/08/24 06:43:21;;;;;;;16.35;5.18;;;;;;;28.71;86.14;98251.66;5013305;28;20021;-53
2022/08/24 06:45:47;;;;;;;13.38;5.03;;;;;;;30.21;76.76;98254.19;5011185;28;20407;-54
2022/08/24 06:48:13;;;;;;;15.90;5.30;;;;;;;30.42;67.63;98259.72;5011769;28;20029;-51
2022/08/24 06:50:39;;;;;;;18.98;6.05;;;;;;;29.91;72.25;98254.09;5011069;28;20041;-51
2022/08/24 06:53:04;;;;;;;15.18;4.82;;;;;;;31.18;63.37;98262.25;5012874;28;20163;-51
2022/08/24 06:55:30;;;;;;;13.25;4.53;;;;;;;33.00;55.95;98260.97;5011255;28;20029;-51
2022/08/24 06:57:55;;;;;;;13.32;4.85;;;;;;;33.35;53.24;98260.94;5012861;28;20081;-52
2022/08/24 07:00:22;;;;;;;14.93;4.85;;;;;;;32.78;52.88;98252.94;5012111;28;20033;-55
2022/08/24 07:02:47;;;;;;;15.57;5.05;;;;;;;31.98;57.28;98257.72;5003714;28;20040;-54
2022/08/24 07:05:13;;;;;;;12.32;4.53;;;;;;;32.32;54.98;98261.56;5012864;28;20030;-54
2022/08/24 07:07:38;;;;;;;10.10;4.45;;;;;;;33.59;48.90;98257.66;5011898;28;20029;-53
2022/08/24 07:10:07;;;;;;;13.30;4.93;;;;;;;33.17;48.72;98258.78;5014071;28;20553;-54
2022/08/24 07:12:33;;;;;;;10.35;4.38;;;;;;;35.42;43.39;98253.53;5015027;28;20137;-54
2022/08/24 07:14:59;;;;;;;10.35;4.47;;;;;;;32.44;49.29;98260.00;5013994;28;20033;-54
2022/08/24 07:17:24;;;;;;;14.07;4.35;;;;;;;34.15;46.41;98252.94;5014800;28;20056;-52
2022/08/24 07:19:49;;;;;;;12.63;4.88;;;;;;;35.23;44.04;98257.16;5016462;28;20029;-53
2022/08/24 07:22:15;;;;;;;10.73;4.30;;;;;;;32.29;50.17;98256.53;5015068;28;20087;-56
2022/08/24 07:24:40;;;;;;;10.27;4.30;;;;;;;33.35;47.79;98256.34;5013546;28;20076;-52
2022/08/24 07:27:06;;;;;;;10.93;4.60;;;;;;;32.95;48.83;98258.03;5011936;28;20048;-53
2022/08/24 07:29:31;;;;;;;12.77;4.78;;;;;;;33.84;47.13;98254.41;5014239;28;20216;-53
2022/08/24 07:31:57;;;;;;;11.60;4.40;;;;;;;34.30;45.46;98253.63;5013010;28;20385;-52
2022/08/24 07:34:23;;;;;;;9.07;3.72;;;;;;;36.97;41.47;98256.69;5014610;28;20472;-53
2022/08/24 07:36:49;;;;;;;8.85;4.07;;;;;;;35.99;40.79;98255.47;5015504;28;20052;-56
2022/08/24 07:39:15;;;;;;;7.22;3.85;;;;;;;33.49;47.48;98251.81;5015306;28;20560;-55
2022/08/24 07:41:43;;;;;;;7.32;3.58;;;;;;;35.83;42.06;98254.97;5013149;28;20780;-55
2022/08/24 07:44:11;;;;;;;9.65;4.45;;;;;;;37.00;38.98;98251.63;5015144;28;20029;-53
2022/08/24 07:46:38;;;;;;;9.40;3.70;;;;;;;37.99;37.20;98247.78;5014178;28;20159;-55
2022/08/24 07:49:04;;;;;;;8.50;3.95;;;;;;;35.61;41.21;98250.94;5014869;28;20496;-53
2022/08/24 07:51:30;;;;;;;8.63;3.60;;;;;;;38.16;37.39;98256.13;5016073;28;20129;-53
2022/08/24 07:53:55;;;;;;;10.43;3.88;;;;;;;35.76;39.06;98256.91;5013949;28;20112;-53
2022/08/24 07:56:21;;;;;;;7.47;3.70;;;;;;;36.96;38.80;98249.56;5012041;28;20042;-54
2022/08/24 07:58:47;;;;;;;9.93;4.00;;;;;;;34.69;42.11;98262.75;5012865;28;20037;-55
2022/08/24 08:01:12;;;;;;;9.38;4.20;;;;;;;37.01;38.70;98256.00;5013258;28;20140;-53
2022/08/24 08:03:38;;;;;;;6.90;3.58;;;;;;;38.02;36.16;98263.66;5013998;28;20086;-53
2022/08/24 08:06:06;;;;;;;7.75;3.70;;;;;;;37.28;36.84;98255.69;5010983;28;20061;-53
2022/08/24 08:08:37;;;;;;;6.97;3.40;;;;;;;38.97;35.53;98258.22;5014111;28;20036;-54
2022/08/24 08:11:03;;;;;;;10.73;3.97;;;;;;;35.86;39.83;98256.41;5010609;28;20399;-54
2022/08/24 08:13:29;;;;;;;8.00;3.95;;;;;;;36.89;38.31;98260.56;5013209;28;20547;-54
2022/08/24 08:15:56;;;;;;;8.70;3.63;;;;;;;35.56;39.30;98250.75;5013790;28;20045;-55
2022/08/24 08:18:22;;;;;;;9.77;4.18;;;;;;;36.14;40.48;98258.72;5014968;28;20017;-57
2022/08/24 08:20:47;;;;;;;8.40;3.97;;;;;;;35.79;40.72;98256.47;5013130;28;20087;-53
2022/08/24 08:26:00;;;;;;;6.85;3.53;;;;;;;35.57;40.32;98253.25;5013760;28;20048;-56
2022/08/24 08:28:26;;;;;;;7.10;3.85;;;;;;;37.35;37.34;98259.16;5015570;28;20056;-56
2022/08/24 08:30:52;;;;;;;6.78;3.72;;;;;;;36.62;37.81;98244.50;5012515;28;20065;-54
2022/08/24 08:33:18;;;;;;;7.25;3.60;;;;;;;35.64;39.61;98253.19;5014032;28;20022;-56
2022/08/24 08:35:43;;;;;;;11.25;4.28;;;;;;;33.34;43.91;98245.72;5014295;28;20034;-55
2022/08/24 08:38:09;;;;;;;11.65;4.43;;;;;;;37.51;37.80;98245.97;5013906;28;20515;-55
2022/08/24 08:40:44;;;;;;;10.25;4.28;;;;;;;38.48;35.65;98245.69;5013076;28;20091;-54
2022/08/24 08:43:20;;;;;;;11.25;4.00;;;;;;;33.32;42.56;98256.75;5013542;28;20380;-55
2022/08/24 08:45:52;;;;;;;12.95;4.63;;;;;;;35.20;40.34;98249.47;5012657;28;20030;-53
2022/08/24 08:48:55;;;;;;;9.88;3.95;;;;;;;37.82;37.36;98241.38;5014461;28;20029;-53
2022/08/24 08:51:57;;;;;;;9.45;3.83;;;;;;;38.17;35.92;98255.88;5013889;28;20052;-53
2022/08/24 08:54:35;;;;;;;11.32;4.20;;;;;;;36.39;38.79;98244.31;5015335;28;20025;-55
2022/08/24 08:57:13;;;;;;;11.85;4.18;;;;;;;37.38;37.93;98242.38;5011543;28;20189;-54
2022/08/24 08:59:55;;;;;;;9.48;4.05;;;;;;;37.36;37.25;98244.50;5014111;28;20021;-53
2022/08/24 09:02:47;;;;;;;9.50;3.92;;;;;;;38.50;36.13;98249.00;5013221;28;20048;-55
2022/08/24 09:05:38;;;;;;;9.23;4.00;;;;;;;35.76;38.68;98239.78;5011590;28;20571;-56
2022/08/24 09:08:07;;;;;;;12.20;4.18;;;;;;;37.93;36.46;98237.81;5014890;28;20029;-54
2022/08/24 09:10:55;;;;;;;11.05;4.22;;;;;;;36.83;37.46;98231.53;5014166;28;20092;-56
2022/08/24 09:14:08;;;;;;;10.10;3.97;;;;;;;37.19;37.56;98235.31;5016989;28;20056;-56
2022/08/24 09:16:54;;;;;;;12.30;4.70;;;;;;;35.98;39.03;98230.22;5021374;28;20045;-57
2022/08/24 09:19:41;;;;;;;10.73;4.30;;;;;;;38.39;34.93;98230.78;5021834;28;20447;-55
2022/08/24 09:22:15;;;;;;;11.90;4.45;;;;;;;36.69;38.05;98227.31;5015583;28;20465;-54
2022/08/24 09:24:53;;;;;;;10.65;4.40;;;;;;;34.89;40.28;98218.50;5016961;28;20491;-55
2022/08/24 09:27:41;;;;;;;9.50;4.22;;;;;;;36.43;38.71;98223.78;5016936;28;20046;-57
2022/08/24 09:30:10;;;;;;;12.82;4.70;;;;;;;37.35;36.38;98228.41;5016329;28;20075;-55
2022/08/24 09:32:50;;;;;;;11.60;4.57;;;;;;;37.87;35.80;98219.72;5015994;28;20030;-56
2022/08/24 09:35:31;;;;;;;10.95;4.05;;;;;;;37.65;35.48;98220.25;5017105;28;20491;-54
2022/08/24 09:38:11;;;;;;;8.85;4.00;;;;;;;36.27;38.44;98215.16;5018028;28;20025;-55
2022/08/24 09:40:59;;;;;;;10.07;4.27;;;;;;;35.43;39.29;98210.97;5015762;28;20187;-54
2022/08/24 09:44:02;;;;;;;11.27;4.03;;;;;;;36.19;37.77;98217.34;5018471;28;20112;-54
2022/08/24 09:46:39;;;;;;;10.50;4.20;;;;;;;33.98;42.28;98218.19;5014245;28;20066;-54
2022/08/24 09:49:23;;;;;;;11.88;4.30;;;;;;;34.01;41.84;98227.78;5014683;28;20067;-53
2022/08/24 09:51:48;;;;;;;10.77;4.07;;;;;;;34.56;41.66;98224.81;5014222;28;20140;-55
2022/08/24 09:54:38;;;;;;;14.30;4.47;;;;;;;33.52;42.05;98218.94;5013509;28;20117;-54
2022/08/24 09:57:30;;;;;;;9.90;4.13;;;;;;;33.49;43.27;98213.09;5015179;28;20033;-53
2022/08/24 10:00:12;;;;;;;11.50;4.28;;;;;;;35.31;40.00;98208.13;5015252;28;20030;-54
2022/08/24 10:02:47;;;;;;;9.43;3.60;;;;;;;35.82;36.73;98214.47;5017071;28;20490;-53
2022/08/24 10:05:26;;;;;;;11.65;3.70;;;;;;;35.81;36.63;98210.94;5017921;28;20491;-54
2022/08/24 10:08:13;;;;;;;9.70;3.50;;;;;;;34.44;39.11;98215.69;5012756;28;20037;-54
2022/08/24 10:11:17;;;;;;;11.27;3.70;;;;;;;36.17;38.15;98208.56;5012250;28;20029;-55
2022/08/24 10:14:08;;;;;;;9.60;3.50;;;;;;;34.56;39.47;98208.56;5012685;28;20026;-55
2022/08/24 10:16:52;;;;;;;;;;;;;;;33.82;42.72;98215.91;5015129;28;20081;-55
2022/08/24 10:19:46;;;;;;;8.25;3.15;;;;;;;36.35;36.70;98205.91;5015354;28;19913;-55
2022/08/24 10:22:27;;;;;;;7.95;2.78;;;;;;;35.24;36.87;98194.59;5030199;28;20040;-54
2022/08/24 10:25:04;;;;;;;13.95;3.50;;;;;;;35.38;37.75;98195.34;5016593;28;20097;-56
2022/08/24 10:27:45;;;;;;;13.43;3.88;;;;;;;35.82;37.59;98190.06;5015224;28;20503;-55
2022/08/24 10:30:32;;;;;;;14.70;4.07;;;;;;;33.07;42.46;98188.88;5016064;28;20160;-55
2022/08/24 10:33:21;;;;;;;10.50;3.47;;;;;;;36.17;36.35;98192.25;5014222;28;20029;-54
2022/08/24 10:36:10;;;;;;;11.30;3.63;;;;;;;35.70;37.33;98192.66;5013216;28;20065;-53
2022/08/24 10:42:08;;;;;;;9.88;3.40;;;;;;;32.62;43.72;98196.56;5013925;28;20086;-53
2022/08/24 10:44:55;;;;;;;13.35;3.83;;;;;;;35.91;37.81;98186.03;5015004;28;20113;-53
2022/08/24 10:47:25;;;;;;;10.65;3.80;;;;;;;36.18;37.28;98188.50;5014004;28;20053;-54
2022/08/24 10:50:02;;;;;;;13.98;4.35;;;;;;;35.43;38.10;98187.38;5013476;28;20109;-53
2022/08/24 10:52:34;;;;;;;11.20;3.83;;;;;;;35.12;38.77;98180.03;5035246;28;20858;-53
2022/08/24 10:55:23;;;;;;;13.65;3.83;;;;;;;34.97;38.98;98176.78;5014695;28;20025;-53
2022/08/24 10:57:54;;;;;;;11.55;3.65;;;;;;;34.29;40.40;98178.84;5014978;28;20041;-53
2022/08/24 11:00:25;;;;;;;11.05;3.90;;;;;;;34.49;39.25;98178.78;5014862;28;20109;-53
2022/08/24 11:03:08;;;;;;;12.68;3.83;;;;;;;35.18;38.76;98175.63;5013202;28;20029;-53
2022/08/24 11:05:46;;;;;;;9.43;3.55;;;;;;;35.21;38.84;98177.94;5015679;28;20132;-53
2022/08/24 11:08:27;;;;;;;12.95;4.03;;;;;;;33.57;42.31;98181.31;5010848;28;20025;-55
2022/08/24 11:11:09;;;;;;;12.60;3.92;;;;;;;32.69;41.44;98177.72;5010710;28;20034;-54
2022/08/24 11:13:48;;;;;;;13.70;3.85;;;;;;;32.71;43.47;98179.16;5014248;28;20971;-55
2022/08/24 11:16:22;;;;;;;16.08;4.40;;;;;;;32.48;44.06;98179.44;5012296;28;20072;-54
2022/08/24 11:18:52;;;;;;;15.30;3.88;;;;;;;33.13;42.53;98177.28;5014653;28;20025;-53
2022/08/24 11:21:35;;;;;;;14.30;3.90;;;;;;;32.81;43.62;98185.03;5013821;28;20034;-54
2022/08/24 11:24:29;;;;;;;13.05;4.15;;;;;;;33.03;42.39;98165.97;5015195;28;20149;-53
2022/08/24 11:26:57;;;;;;;12.15;3.70;;;;;;;33.60;41.14;98169.22;5014946;28;20045;-53
2022/08/24 11:29:48;;;;;;;17.08;4.22;;;;;;;32.72;42.21;98182.69;5014862;28;20458;-54
2022/08/24 11:32:28;;;;;;;16.05;4.53;;;;;;;33.82;40.86;98174.47;5014811;28;20045;-53
2022/08/24 11:34:54;;;;;;;10.63;3.60;;;;;;;31.73;44.76;98172.84;5015556;28;20483;-53
2022/08/24 11:37:34;;;;;;;15.68;4.32;;;;;;;33.33;41.67;98165.69;5014458;28;20045;-54
2022/08/24 11:40:00;;;;;;;17.45;4.57;;;;;;;32.81;42.72;98159.88;5015090;28;20064;-53
2022/08/24 11:42:39;;;;;;;15.77;4.63;;;;;;;31.50;45.56;98171.19;5013026;28;20088;-53
2022/08/24 11:45:11;;;;;;;13.07;3.97;;;;;;;32.50;43.39;98169.28;5012780;28;20048;-52
2022/08/24 11:48:02;;;;;;;15.60;3.90;;;;;;;32.84;41.84;98176.50;5011497;28;20049;-52
2022/08/24 11:50:38;;;;;;;15.67;4.20;;;;;;;32.53;41.77;98160.75;5014137;28;20125;-54